createdAt,value
2023-05-04T00:01:48.920Z,86.50
2023-05-04T00:04:18.212Z,86.80
2023-05-04T00:06:47.588Z,86.80
2023-05-04T00:09:17.978Z,87.10
2023-05-04T00:11:47.333Z,87.50
2023-05-04T00:14:16.199Z,87.30
2023-05-04T00:16:45.217Z,87.20
2023-05-04T00:19:14.056Z,87.20
2023-05-04T00:21:42.939Z,87.10
2023-05-04T00:24:12.008Z,87.30
2023-05-04T00:26:42.293Z,87.70
2023-05-04T00:29:11.546Z,87.90
2023-05-04T00:31:40.768Z,87.70
2023-05-04T00:34:10.427Z,87.90
2023-05-04T00:36:39.813Z,87.90
2023-05-04T00:39:09.033Z,88.10
2023-05-04T00:41:38.197Z,87.70
2023-05-04T00:44:09.439Z,88.10
2023-05-04T00:46:39.217Z,88.10
2023-05-04T00:49:09.593Z,88.30
2023-05-04T00:51:39.199Z,88.30
2023-05-04T00:54:08.920Z,88.40
2023-05-04T00:56:42.250Z,88.60
2023-05-04T00:59:15.065Z,88.80
2023-05-04T01:01:44.244Z,88.80
2023-05-04T01:04:15.086Z,90.30
2023-05-04T01:06:50.397Z,90.40
2023-05-04T01:09:29.962Z,90.30
2023-05-04T01:12:07.263Z,90.40
2023-05-04T01:14:38.542Z,90.70
2023-05-04T01:17:09.598Z,90.70
2023-05-04T01:19:38.413Z,90.80
2023-05-04T01:22:08.838Z,90.90
2023-05-04T01:24:37.724Z,90.90
2023-05-04T01:27:12.651Z,91.00
2023-05-04T01:29:49.972Z,91.20
2023-05-04T01:32:21.130Z,91.30
2023-05-04T01:34:49.770Z,91.50
2023-05-04T01:37:21.634Z,91.50
2023-05-04T01:39:50.210Z,91.70
2023-05-04T01:42:18.756Z,91.60
2023-05-04T01:44:47.516Z,91.90
2023-05-04T01:47:16.151Z,92.00
2023-05-04T01:49:44.700Z,92.10
2023-05-04T01:52:13.329Z,92.20
2023-05-04T01:54:43.420Z,92.30
2023-05-04T01:57:12.364Z,92.10
2023-05-04T01:59:40.982Z,92.10
2023-05-04T02:02:10.699Z,92.30
2023-05-04T02:04:39.462Z,92.30
2023-05-04T02:07:07.937Z,92.40
2023-05-04T02:09:36.867Z,92.30
2023-05-04T02:12:07.822Z,92.50
2023-05-04T02:14:36.330Z,92.40
2023-05-04T02:17:06.350Z,92.40
2023-05-04T02:19:34.950Z,92.50
2023-05-04T02:22:03.732Z,92.40
2023-05-04T02:24:32.278Z,92.50
2023-05-04T02:27:01.858Z,92.90
2023-05-04T02:29:32.371Z,93.00
2023-05-04T02:32:03.026Z,92.80
2023-05-04T02:34:31.629Z,93.00
2023-05-04T02:37:00.134Z,93.10
2023-05-04T02:39:28.695Z,93.20
2023-05-04T02:41:57.260Z,93.40
2023-05-04T02:44:25.863Z,93.50
2023-05-04T02:46:55.728Z,93.50
2023-05-04T02:49:24.182Z,93.50
2023-05-04T02:51:52.968Z,93.70
2023-05-04T02:54:21.452Z,93.90
2023-05-04T02:56:50.397Z,93.70
2023-05-04T02:59:18.828Z,93.80
2023-05-04T03:01:47.250Z,94.00
2023-05-04T03:04:21.727Z,94.20
2023-05-04T03:06:50.376Z,94.30
2023-05-04T03:09:18.923Z,94.40
2023-05-04T03:11:47.524Z,94.40
2023-05-04T03:14:16.685Z,94.40
2023-05-04T03:16:47.541Z,94.70
2023-05-04T03:19:19.364Z,94.80
2023-05-04T03:21:50.270Z,94.80
2023-05-04T03:24:20.877Z,95.00
2023-05-04T03:26:49.684Z,95.10
2023-05-04T03:29:18.550Z,95.20
2023-05-04T03:31:47.210Z,95.50
2023-05-04T03:34:21.779Z,95.60
2023-05-04T03:36:54.868Z,95.70
2023-05-04T03:39:23.494Z,95.70
2023-05-04T03:41:52.312Z,95.90
2023-05-04T03:44:21.721Z,96.20
2023-05-04T03:46:50.447Z,96.00
2023-05-04T03:49:20.928Z,96.00
2023-05-04T03:51:49.569Z,96.00
2023-05-04T03:54:18.098Z,96.20
2023-05-04T03:56:46.788Z,96.30
2023-05-04T03:59:18.676Z,96.60
2023-05-04T04:01:47.887Z,96.50
2023-05-04T04:04:16.401Z,96.60
2023-05-04T04:06:46.640Z,96.60
2023-05-04T04:09:16.028Z,96.70
2023-05-04T04:11:44.839Z,96.80
2023-05-04T04:14:12.998Z,96.80
2023-05-04T04:16:41.239Z,96.90
2023-05-04T04:19:09.778Z,97.10
2023-05-04T04:21:38.189Z,97.00
2023-05-04T04:24:08.088Z,97.20
2023-05-04T04:26:36.642Z,97.60
2023-05-04T04:29:05.691Z,98.10
2023-05-04T04:31:59.216Z,98.20
2023-05-04T04:34:29.828Z,98.30
2023-05-04T04:36:58.846Z,98.80
2023-05-04T04:39:28.525Z,99.00
2023-05-04T04:41:56.725Z,99.10
2023-05-04T04:44:25.072Z,99.10
2023-05-04T04:46:53.447Z,99.00
2023-05-04T04:49:21.953Z,99.30
2023-05-04T04:51:50.404Z,99.90
2023-05-04T04:54:18.809Z,99.60
2023-05-04T04:56:48.328Z,99.90
2023-05-04T04:59:17.264Z,99.40
2023-05-04T05:01:54.010Z,99.50
2023-05-04T05:04:42.044Z,99.40
2023-05-04T05:07:10.421Z,99.80
2023-05-04T05:09:38.993Z,99.90
2023-05-04T05:12:09.011Z,99.90
2023-05-04T05:14:37.171Z,99.90
2023-05-04T05:17:05.758Z,99.90
2023-05-04T05:19:37.075Z,99.90
2023-05-04T05:22:05.926Z,99.90
2023-05-04T05:24:34.243Z,99.90
2023-05-04T05:27:02.530Z,99.90
2023-05-04T05:29:32.262Z,99.90
2023-05-04T05:32:00.496Z,99.90
2023-05-04T05:34:28.643Z,99.90
2023-05-04T05:36:56.824Z,99.90
2023-05-04T05:39:24.915Z,99.90
2023-05-04T05:41:58.120Z,99.90
2023-05-04T05:44:26.407Z,99.90
2023-05-04T05:46:56.749Z,99.90
2023-05-04T05:49:25.017Z,99.90
2023-05-04T05:51:53.261Z,99.90
2023-05-04T05:54:22.979Z,99.90
2023-05-04T05:56:51.331Z,99.90
2023-05-04T05:59:19.598Z,99.90
2023-05-04T06:01:48.070Z,99.90
2023-05-04T06:04:17.924Z,99.90
2023-05-04T06:06:46.817Z,99.90
2023-05-04T06:09:15.062Z,99.90
2023-05-04T06:11:43.277Z,99.90
2023-05-04T06:14:11.619Z,99.90
2023-05-04T06:16:39.886Z,99.90
2023-05-04T06:19:08.332Z,99.90
2023-05-04T06:21:38.018Z,99.90
2023-05-04T06:24:07.262Z,99.90
2023-05-04T06:26:35.555Z,99.90
2023-05-04T06:29:03.951Z,99.90
2023-05-04T06:31:32.735Z,99.90
2023-05-04T06:34:01.197Z,99.90
2023-05-04T06:36:29.514Z,99.90
2023-05-04T06:38:59.214Z,99.90
2023-05-04T06:41:27.552Z,99.90
2023-05-04T06:43:58.748Z,99.90
2023-05-04T06:46:27.697Z,99.90
2023-05-04T06:48:56.097Z,99.90
2023-05-04T06:51:24.481Z,99.90
2023-05-04T06:53:53.788Z,99.90
2023-05-04T06:56:24.653Z,99.90
2023-05-04T06:58:53.269Z,99.90
2023-05-04T07:01:21.924Z,99.90
2023-05-04T07:03:50.558Z,99.90
2023-05-04T07:06:19.601Z,99.90
2023-05-04T07:08:47.863Z,99.90
2023-05-04T07:11:16.289Z,99.90
2023-05-04T07:13:46.035Z,99.90
2023-05-04T07:16:14.625Z,99.90
2023-05-04T07:18:42.995Z,99.90
2023-05-04T07:21:26.679Z,99.90
2023-05-04T07:23:56.450Z,99.90
2023-05-04T07:26:25.198Z,99.90
2023-05-04T07:28:55.029Z,99.90
2023-05-04T07:31:23.393Z,99.90
2023-05-04T07:33:52.071Z,99.90
2023-05-04T07:36:20.606Z,99.90
2023-05-04T07:38:49.165Z,99.90
2023-05-04T07:41:17.426Z,99.90
2023-05-04T07:44:38.584Z,99.90
2023-05-04T07:47:06.800Z,99.90
2023-05-04T07:49:35.089Z,99.90
2023-05-04T07:52:04.632Z,99.90
2023-05-04T07:54:32.840Z,99.90
2023-05-04T07:57:04.211Z,99.90
2023-05-04T07:59:34.148Z,99.90
2023-05-04T08:02:02.502Z,99.90
2023-05-04T08:04:30.680Z,99.90
2023-05-04T08:06:58.952Z,99.90
2023-05-04T08:09:27.221Z,99.90
2023-05-04T08:11:55.440Z,99.90
2023-05-04T08:14:23.615Z,99.90
2023-05-04T08:16:53.295Z,99.90
2023-05-04T08:19:21.521Z,99.90
2023-05-04T08:21:49.709Z,99.90
2023-05-04T08:24:19.279Z,99.90
2023-05-04T08:26:55.939Z,99.90
2023-05-04T08:29:32.258Z,99.90
2023-05-04T08:32:01.880Z,99.90
2023-05-04T08:34:30.047Z,99.90
2023-05-04T08:36:58.560Z,99.90
2023-05-04T08:39:27.080Z,99.90
2023-05-04T08:41:55.401Z,99.90
2023-05-04T08:44:24.049Z,99.90
2023-05-04T08:46:53.829Z,99.90
2023-05-04T08:49:25.380Z,99.90
2023-05-04T08:51:53.810Z,99.90
2023-05-04T08:54:23.289Z,99.90
2023-05-04T08:56:55.021Z,99.90
2023-05-04T08:59:25.862Z,99.90
2023-05-04T09:01:59.709Z,99.90
2023-05-04T09:04:31.775Z,99.90
2023-05-04T09:06:59.999Z,99.90
2023-05-04T09:09:31.873Z,99.90
2023-05-04T09:12:00.372Z,99.90
2023-05-04T09:14:35.538Z,99.90
2023-05-04T09:17:04.740Z,99.90
2023-05-04T09:19:34.712Z,99.90
2023-05-04T09:22:04.106Z,99.90
2023-05-04T09:24:32.700Z,99.90
2023-05-04T09:27:11.416Z,99.90
2023-05-04T09:29:40.584Z,99.90
2023-05-04T09:32:15.341Z,99.90
2023-05-04T09:34:53.038Z,99.90
2023-05-04T09:37:22.539Z,99.90
2023-05-04T09:39:53.756Z,99.90
2023-05-04T09:42:23.530Z,99.90
2023-05-04T09:45:04.011Z,99.90
2023-05-04T09:47:35.214Z,99.90
2023-05-04T09:50:19.907Z,99.90
2023-05-04T09:52:50.175Z,99.90
2023-05-04T09:55:21.187Z,99.90
2023-05-04T09:57:51.310Z,99.90
2023-05-04T10:00:21.061Z,99.90
2023-05-04T10:02:50.346Z,99.90
2023-05-04T10:05:21.708Z,99.90
2023-05-04T10:07:51.027Z,99.90
2023-05-04T10:10:19.305Z,99.90
2023-05-04T10:12:47.901Z,99.90
2023-05-04T10:15:18.227Z,99.90
2023-05-04T10:18:06.825Z,99.90
2023-05-04T10:20:55.879Z,99.90
2023-05-04T10:23:52.133Z,99.90
2023-05-04T10:26:59.641Z,99.90
2023-05-04T10:29:33.171Z,99.90
2023-05-04T10:32:02.008Z,99.90
2023-05-04T10:34:32.575Z,99.90
2023-05-04T10:37:16.782Z,99.90
2023-05-04T10:39:53.480Z,99.90
2023-05-04T10:42:22.616Z,99.90
2023-05-04T10:44:53.390Z,99.90
2023-05-04T10:47:33.403Z,99.90
2023-05-04T10:50:07.200Z,99.90
2023-05-04T10:52:49.043Z,99.90
2023-05-04T10:55:19.492Z,99.90
2023-05-04T10:57:50.642Z,99.90
2023-05-04T11:00:20.323Z,99.90
2023-05-04T11:02:50.939Z,99.90
2023-05-04T11:05:20.502Z,99.90
2023-05-04T11:11:10.709Z,99.90
2023-05-04T11:13:46.915Z,99.90
2023-05-04T11:16:23.536Z,99.90
2023-05-04T11:18:52.402Z,99.90
2023-05-04T11:21:25.918Z,99.90
2023-05-04T11:23:57.930Z,99.90
2023-05-04T11:26:30.771Z,99.90
2023-05-04T11:29:22.075Z,99.90
2023-05-04T11:32:09.155Z,99.40
2023-05-04T11:34:37.896Z,99.00
2023-05-04T11:37:07.744Z,99.10
2023-05-04T11:39:37.028Z,98.60
2023-05-04T11:42:09.923Z,98.20
2023-05-04T11:44:39.570Z,98.00
2023-05-04T11:47:08.311Z,97.70
2023-05-04T11:49:37.253Z,97.10
2023-05-04T11:52:09.993Z,96.90
2023-05-04T11:54:38.533Z,97.00
2023-05-04T11:57:08.555Z,96.80
2023-05-04T11:59:37.162Z,96.70
2023-05-04T12:02:05.963Z,96.20
2023-05-04T12:04:35.471Z,96.40
2023-05-04T12:07:09.463Z,96.30
2023-05-04T12:09:47.008Z,96.30
2023-05-04T12:12:21.685Z,95.80
2023-05-04T12:14:52.505Z,95.90
2023-05-04T12:17:21.533Z,95.00
2023-05-04T12:19:51.871Z,94.90
2023-05-04T12:22:29.310Z,95.00
2023-05-04T12:24:59.667Z,95.00
2023-05-04T12:27:29.688Z,94.70
2023-05-04T12:29:58.089Z,94.50
2023-05-04T12:32:26.596Z,93.90
2023-05-04T12:34:54.998Z,93.80
2023-05-04T12:37:25.116Z,93.70
2023-05-04T12:39:53.714Z,93.40
2023-05-04T12:42:22.182Z,93.70
2023-05-04T12:44:52.613Z,93.10
2023-05-04T12:47:24.450Z,92.30
2023-05-04T12:49:53.121Z,92.30
2023-05-04T12:52:21.813Z,92.50
2023-05-04T12:54:52.039Z,92.50
2023-05-04T12:57:20.758Z,92.00
2023-05-04T12:59:49.122Z,90.60
2023-05-04T13:02:19.360Z,90.50
2023-05-04T13:04:56.370Z,90.80
2023-05-04T13:07:43.711Z,90.40
2023-05-04T13:10:12.368Z,90.10
2023-05-04T13:12:40.677Z,90.30
2023-05-04T13:15:12.002Z,89.90
2023-05-04T13:17:43.224Z,89.40
2023-05-04T13:20:13.427Z,89.00
2023-05-04T13:22:42.296Z,88.70
2023-05-04T13:25:10.808Z,87.70
2023-05-04T13:27:38.938Z,87.30
2023-05-04T13:30:09.200Z,86.70
2023-05-04T13:32:45.536Z,86.90
2023-05-04T13:35:14.481Z,86.00
2023-05-04T13:37:42.932Z,86.00
2023-05-04T13:40:13.371Z,85.90
2023-05-04T13:42:41.978Z,85.10
2023-05-04T13:45:11.931Z,85.20
2023-05-04T13:47:41.449Z,84.60
2023-05-04T13:50:12.285Z,85.10
2023-05-04T13:52:40.906Z,85.70
2023-05-04T13:55:10.668Z,85.80
2023-05-04T13:57:39.059Z,85.10
2023-05-04T14:00:09.932Z,84.50
2023-05-04T14:02:41.617Z,85.30
2023-05-04T14:05:11.935Z,84.60
2023-05-04T14:07:40.262Z,84.30
2023-05-04T14:10:09.843Z,84.90
2023-05-04T14:12:37.988Z,84.40
2023-05-04T14:15:07.792Z,83.60
2023-05-04T14:17:36.525Z,83.50
2023-05-04T14:20:05.884Z,82.90
2023-05-04T14:22:38.024Z,83.40
2023-05-04T14:25:07.345Z,82.80
2023-05-04T14:27:36.778Z,82.80
2023-05-04T14:30:09.329Z,82.40
2023-05-04T14:32:37.976Z,82.00
2023-05-04T14:35:14.626Z,82.10
2023-05-04T14:37:44.535Z,81.00
2023-05-04T14:40:33.194Z,82.00
2023-05-04T14:43:27.252Z,82.40
2023-05-04T14:46:05.828Z,81.20
2023-05-04T14:49:16.283Z,81.30
2023-05-04T14:52:02.869Z,80.70
2023-05-04T14:54:47.492Z,80.00
2023-05-04T14:57:29.758Z,79.50
2023-05-04T14:59:58.745Z,79.60
2023-05-04T15:02:27.550Z,80.50
2023-05-04T15:04:57.688Z,79.80
2023-05-04T15:07:45.368Z,79.20
2023-05-04T15:11:46.480Z,78.90
2023-05-04T15:14:16.183Z,76.70
2023-05-04T15:16:44.276Z,78.00
2023-05-04T15:19:12.446Z,78.10
2023-05-04T15:21:41.561Z,78.10
2023-05-04T15:24:09.903Z,77.30
2023-05-04T15:26:38.033Z,77.10
2023-05-04T15:29:06.737Z,76.80
2023-05-04T15:31:36.778Z,77.00
2023-05-04T15:34:04.916Z,76.90
2023-05-04T15:36:32.989Z,76.60
2023-05-04T15:39:01.071Z,76.00
2023-05-04T15:41:29.188Z,76.00
2023-05-04T15:43:57.319Z,76.00
2023-05-04T15:46:33.748Z,76.30
2023-05-04T15:49:17.357Z,76.00
2023-05-04T15:52:30.267Z,74.60
2023-05-04T15:57:25.485Z,75.20
2023-05-04T16:09:17.926Z,76.00
2023-05-04T16:13:14.033Z,75.20
2023-05-04T16:16:00.985Z,75.20
2023-05-04T16:19:15.615Z,75.00
2023-05-04T16:21:48.290Z,75.10
2023-05-04T16:24:36.135Z,74.20
2023-05-04T16:27:06.735Z,73.90
2023-05-04T16:30:00.392Z,73.60
2023-05-04T16:32:37.123Z,72.40
2023-05-04T16:35:09.219Z,73.80
2023-05-04T16:37:45.898Z,73.50
2023-05-04T16:40:16.664Z,73.30
2023-05-04T16:42:46.176Z,72.90
2023-05-04T16:45:15.703Z,73.10
2023-05-04T16:47:45.732Z,73.10
2023-05-04T16:50:15.623Z,72.90
2023-05-04T16:52:45.641Z,73.00
2023-05-04T16:55:14.558Z,72.60
2023-05-04T16:57:44.059Z,72.80
2023-05-04T17:00:14.704Z,72.70
2023-05-04T17:02:44.055Z,72.80
2023-05-04T17:05:12.794Z,72.80
2023-05-04T17:07:43.500Z,72.70
2023-05-04T17:10:15.119Z,72.70
2023-05-04T17:12:43.832Z,72.60
2023-05-04T17:15:13.442Z,72.10
2023-05-04T17:17:42.472Z,72.40
2023-05-04T17:20:15.009Z,72.80
2023-05-04T17:22:44.809Z,73.00
2023-05-04T17:25:15.331Z,73.00
2023-05-04T17:27:45.324Z,73.20
2023-05-04T17:30:15.106Z,72.80
2023-05-04T17:32:44.344Z,72.90
2023-05-04T17:35:24.146Z,73.30
2023-05-04T17:37:56.754Z,73.30
2023-05-04T17:40:29.555Z,73.30
2023-05-04T17:42:58.500Z,73.00
2023-05-04T17:45:26.989Z,73.00
2023-05-04T17:47:55.586Z,72.90
2023-05-04T17:50:25.544Z,72.90
2023-05-04T17:52:55.798Z,72.90
2023-05-04T17:55:25.510Z,72.90
2023-05-04T17:57:55.797Z,72.90
2023-05-04T18:00:24.837Z,72.80
2023-05-04T18:02:53.579Z,72.90
2023-05-04T18:05:25.839Z,72.80
2023-05-04T18:07:54.306Z,72.90
2023-05-04T18:10:22.759Z,72.70
2023-05-04T18:12:51.415Z,72.40
2023-05-04T18:15:22.172Z,72.30
2023-05-04T18:17:54.565Z,72.50
2023-05-04T18:20:23.731Z,72.50
2023-05-04T18:22:52.430Z,72.40
2023-05-04T18:25:21.370Z,72.40
2023-05-04T18:27:50.070Z,72.40
2023-05-04T18:30:20.076Z,72.30
2023-05-04T18:32:49.076Z,72.10
2023-05-04T18:35:18.167Z,72.40
2023-05-04T18:37:50.142Z,72.40
2023-05-04T18:40:19.135Z,72.30
2023-05-04T18:42:48.004Z,72.30
2023-05-04T18:45:26.887Z,72.20
2023-05-04T18:47:55.753Z,72.00
2023-05-04T18:50:24.567Z,72.00
2023-05-04T18:52:54.212Z,71.90
2023-05-04T18:55:23.274Z,71.80
2023-05-04T18:57:51.781Z,71.60
2023-05-04T19:00:22.884Z,71.30
2023-05-04T19:02:51.837Z,71.20
2023-05-04T19:05:20.355Z,71.20
2023-05-04T19:07:48.705Z,71.10
2023-05-04T19:10:17.884Z,71.10
2023-05-04T19:12:46.545Z,70.80
2023-05-04T19:15:17.405Z,71.00
2023-05-04T19:17:50.533Z,70.90
2023-05-04T19:20:19.726Z,70.80
2023-05-04T19:22:48.028Z,70.90
2023-05-04T19:25:33.206Z,70.90
2023-05-04T19:28:07.833Z,70.80
2023-05-04T19:30:37.004Z,70.90
2023-05-04T19:33:08.443Z,71.00
2023-05-04T19:35:37.946Z,71.20
2023-05-04T19:38:07.468Z,71.30
2023-05-04T19:40:36.439Z,71.60
2023-05-04T19:43:05.678Z,71.50
2023-05-04T19:45:34.084Z,71.50
2023-05-04T19:48:04.733Z,71.60
2023-05-04T19:50:34.972Z,71.50
2023-05-04T19:53:04.264Z,71.50
2023-05-04T19:55:33.272Z,71.60
2023-05-04T19:58:01.711Z,71.80
2023-05-04T20:00:30.375Z,71.70
2023-05-04T20:02:58.973Z,71.80
2023-05-04T20:05:27.709Z,71.90
2023-05-04T20:07:57.734Z,72.20
2023-05-04T20:10:26.353Z,72.40
2023-05-04T20:13:00.095Z,72.40
2023-05-04T20:15:29.791Z,72.60
2023-05-04T20:17:58.385Z,72.80
2023-05-04T20:20:26.837Z,72.80
2023-05-04T20:23:02.365Z,72.90
2023-05-04T20:25:31.823Z,73.00
2023-05-04T20:28:01.043Z,73.10
2023-05-04T20:30:29.657Z,73.40
2023-05-04T20:32:58.607Z,73.50
2023-05-04T20:35:27.144Z,73.70
2023-05-04T20:37:55.705Z,74.10
2023-05-04T20:40:25.959Z,74.40
2023-05-04T20:42:54.515Z,74.60
2023-05-04T20:45:23.220Z,74.90
2023-05-04T20:47:51.628Z,75.10
2023-05-04T20:50:20.432Z,75.40
2023-05-04T20:52:48.849Z,75.40
2023-05-04T20:55:17.808Z,75.60
2023-05-04T20:57:47.922Z,75.80
2023-05-04T21:00:18.241Z,76.00
2023-05-04T21:02:47.514Z,76.10
2023-05-04T21:05:16.174Z,77.10
2023-05-04T21:07:44.727Z,76.50
2023-05-04T21:10:13.202Z,76.80
2023-05-04T21:12:41.549Z,77.00
2023-05-04T21:15:13.072Z,77.20
2023-05-04T21:17:41.724Z,77.20
2023-05-04T21:20:11.726Z,77.60
2023-05-04T21:22:40.023Z,77.90
2023-05-04T21:25:09.362Z,78.00
2023-05-04T21:27:37.914Z,78.20
2023-05-04T21:30:08.388Z,78.50
2023-05-04T21:32:38.587Z,78.50
2023-05-04T21:35:08.224Z,78.80
2023-05-04T21:37:36.570Z,79.10
2023-05-04T21:40:05.906Z,79.30
2023-05-04T21:42:34.606Z,80.30
2023-05-04T21:45:02.945Z,79.70
2023-05-04T21:47:31.411Z,79.90
2023-05-04T21:50:02.173Z,80.00
2023-05-04T21:52:30.846Z,80.10
2023-05-04T21:54:59.362Z,80.10
2023-05-04T21:57:27.688Z,80.20
2023-05-04T21:59:55.919Z,80.30
2023-05-04T22:02:24.298Z,80.50
2023-05-04T22:04:52.608Z,80.50
2023-05-04T22:07:22.619Z,80.60
2023-05-04T22:09:51.591Z,80.80
2023-05-04T22:12:20.042Z,80.90
2023-05-04T22:14:48.450Z,81.00
2023-05-04T22:17:16.739Z,81.20
2023-05-04T22:19:45.158Z,81.30
2023-05-04T22:22:13.568Z,81.30
2023-05-04T22:24:43.269Z,81.40
2023-05-04T22:27:11.680Z,81.60
2023-05-04T22:29:40.565Z,81.60
2023-05-04T22:32:09.047Z,81.70
2023-05-04T22:34:37.555Z,81.80
2023-05-04T22:37:06.071Z,82.10
2023-05-04T22:39:34.302Z,82.00
2023-05-04T22:42:03.891Z,82.30
2023-05-04T22:44:32.241Z,82.40
2023-05-04T22:47:00.705Z,82.40
2023-05-04T22:49:28.943Z,82.60
2023-05-04T22:51:57.216Z,82.70
2023-05-04T22:54:25.825Z,82.70
2023-05-04T22:56:54.187Z,83.00
2023-05-04T22:59:23.941Z,84.00
2023-05-04T23:01:52.371Z,83.30
2023-05-04T23:04:20.811Z,83.60
2023-05-04T23:06:49.100Z,83.70
2023-05-04T23:09:17.467Z,83.80
2023-05-04T23:11:46.292Z,83.90
2023-05-04T23:14:15.763Z,84.10
2023-05-04T23:16:45.636Z,84.20
2023-05-04T23:19:13.981Z,84.50
2023-05-04T23:21:42.321Z,84.70
2023-05-04T23:24:10.536Z,84.80
2023-05-04T23:26:38.871Z,84.90
2023-05-04T23:29:07.127Z,84.90
2023-05-04T23:31:35.411Z,85.10
2023-05-04T23:34:05.125Z,85.20
2023-05-04T23:36:33.466Z,85.30
2023-05-04T23:39:01.752Z,85.40
2023-05-04T23:41:30.117Z,85.50
2023-05-04T23:43:59.943Z,85.60
2023-05-04T23:46:28.288Z,85.60
2023-05-04T23:48:56.635Z,85.70
2023-05-04T23:51:28.488Z,85.90
2023-05-04T23:53:56.849Z,86.10
2023-05-04T23:56:25.082Z,86.10
2023-05-04T23:58:53.923Z,86.00
